Time;durP1;ratioP1;P1;durP2;ratioP2;P2;SDS_P1;SDS_P2;PMS_P1;PMS_P2;Temp;Humidity;BMP_temperature;BMP_pressure;BME280_temperature;BME280_humidity;BME280_pressure;Samples;Min_cycle;Max_cycle;Signal;HPM_P1;HPM_P2
2023/07/12 05:09:10;;;;;;;6.07;4.15;;;;;;;19.99;100.00;99792.13;5109680;27;20396;-61
2023/07/12 05:11:36;;;;;;;7.07;4.03;;;;;;;20.07;100.00;99788.19;5109860;28;20035;-61
2023/07/12 05:14:01;;;;;;;7.55;4.78;;;;;;;20.15;100.00;99795.91;5109838;28;20126;-60
2023/07/12 05:16:26;;;;;;;8.57;4.65;;;;;;;20.19;100.00;99796.22;5109717;28;20078;-61
2023/07/12 05:18:52;;;;;;;8.07;4.75;;;;;;;20.25;100.00;99798.75;5109485;28;20028;-62
2023/07/12 05:21:20;;;;;;;6.30;4.43;;;;;;;20.33;100.00;99806.44;5109777;28;20449;-61
2023/07/12 05:23:45;;;;;;;9.25;4.45;;;;;;;20.40;100.00;99810.84;5109713;28;20040;-60
2023/07/12 05:26:11;;;;;;;9.75;4.30;;;;;;;20.47;100.00;99815.03;5109464;28;20028;-62
2023/07/12 05:28:36;;;;;;;6.28;3.95;;;;;;;20.52;100.00;99828.66;5109204;28;20432;-62
2023/07/12 05:31:09;;;;;;;6.50;4.15;;;;;;;20.58;100.00;99829.56;5109568;28;20043;-61
2023/07/12 05:33:34;;;;;;;6.78;4.50;;;;;;;20.62;100.00;99827.19;5109495;28;20035;-63
2023/07/12 05:36:01;;;;;;;5.72;3.45;;;;;;;20.69;100.00;99828.63;5109333;28;20036;-62
2023/07/12 05:38:27;;;;;;;4.57;3.53;;;;;;;20.74;100.00;99842.25;5109038;28;20042;-62
2023/07/12 05:40:56;;;;;;;5.82;3.38;;;;;;;20.77;100.00;99847.16;5109355;28;20044;-60
2023/07/12 05:43:23;;;;;;;8.43;4.03;;;;;;;20.81;100.00;99842.88;5107926;28;20503;-62
2023/07/12 05:45:48;;;;;;;6.63;3.60;;;;;;;20.89;100.00;99843.50;5109180;28;20126;-62
2023/07/12 05:48:14;;;;;;;7.57;4.20;;;;;;;20.92;100.00;99840.28;5107886;28;20115;-61
2023/07/12 05:50:39;;;;;;;5.72;3.70;;;;;;;20.97;100.00;99835.75;5109078;28;20404;-62
2023/07/12 05:53:05;;;;;;;7.82;4.00;;;;;;;20.96;100.00;99844.97;5109116;28;20064;-61
2023/07/12 05:55:31;;;;;;;8.32;3.78;;;;;;;21.07;100.00;99845.94;5107772;28;20400;-61
2023/07/12 05:57:57;;;;;;;7.05;3.97;;;;;;;21.07;100.00;99841.31;5108970;28;20035;-62
2023/07/12 06:00:22;;;;;;;6.85;4.45;;;;;;;21.11;100.00;99847.03;5108763;28;20108;-60
2023/07/12 06:02:48;;;;;;;5.10;3.55;;;;;;;21.16;100.00;99849.81;5108925;28;20059;-62
2023/07/12 06:05:14;;;;;;;8.27;3.25;;;;;;;21.29;100.00;99849.47;5108752;28;20390;-61
2023/07/12 06:07:39;;;;;;;7.53;3.63;;;;;;;21.38;100.00;99847.13;5107551;28;20089;-61
2023/07/12 06:10:05;;;;;;;5.50;3.55;;;;;;;21.44;100.00;99856.13;5109140;28;20359;-61
2023/07/12 06:12:30;;;;;;;6.07;3.58;;;;;;;21.48;100.00;99855.38;5109549;28;20037;-63
2023/07/12 06:14:56;;;;;;;8.18;3.60;;;;;;;21.56;100.00;99854.09;5109135;28;20392;-63
2023/07/12 06:17:21;;;;;;;5.90;3.58;;;;;;;21.64;100.00;99857.16;5108545;28;20446;-60
2023/07/12 06:19:47;;;;;;;3.55;2.75;;;;;;;21.75;100.00;99859.97;5098899;28;20492;-61
2023/07/12 06:22:12;;;;;;;4.65;3.35;;;;;;;21.79;100.00;99858.41;5094952;28;20028;-62
2023/07/12 06:24:38;;;;;;;3.72;2.75;;;;;;;21.84;100.00;99862.00;5094567;28;20081;-61
2023/07/12 06:27:03;;;;;;;5.80;3.08;;;;;;;22.00;100.00;99859.41;5094736;28;20036;-62
2023/07/12 06:29:29;;;;;;;5.55;3.00;;;;;;;22.09;100.00;99863.31;5094540;28;20067;-62
2023/07/12 06:31:55;;;;;;;4.50;2.83;;;;;;;22.12;100.00;99860.09;5094795;28;20389;-61
2023/07/12 06:34:21;;;;;;;3.47;2.67;;;;;;;22.14;100.00;99853.31;5094767;28;20036;-63
2023/07/12 06:36:47;;;;;;;6.20;3.00;;;;;;;22.16;100.00;99856.59;5094546;28;20040;-63
2023/07/12 06:39:12;;;;;;;5.63;3.03;;;;;;;22.16;100.00;99858.47;5094366;28;20039;-62
2023/07/12 06:41:37;;;;;;;5.32;3.05;;;;;;;22.18;100.00;99856.34;5074695;28;20078;-62
2023/07/12 06:44:03;;;;;;;4.18;2.72;;;;;;;22.21;100.00;99859.34;5074385;28;20082;-62
2023/07/12 06:46:28;;;;;;;4.82;3.58;;;;;;;22.23;100.00;99850.94;5074282;28;20045;-61
2023/07/12 06:48:54;;;;;;;5.40;2.90;;;;;;;22.34;100.00;99858.09;5073954;28;20056;-63
2023/07/12 06:51:19;;;;;;;5.28;3.03;;;;;;;22.34;100.00;99860.81;5074192;28;20033;-63
2023/07/12 06:53:45;;;;;;;3.28;2.42;;;;;;;22.44;100.00;99855.47;5074520;28;20044;-60
2023/07/12 06:56:10;;;;;;;4.68;2.78;;;;;;;22.50;100.00;99866.38;5074096;28;20374;-63
2023/07/12 06:58:35;;;;;;;5.10;2.60;;;;;;;22.55;100.00;99869.91;5074234;28;20119;-59
2023/07/12 07:01:07;;;;;;;4.43;2.60;;;;;;;22.62;100.00;99878.63;5073978;28;20044;-63
2023/07/12 07:03:32;;;;;;;3.42;2.42;;;;;;;22.62;100.00;99866.97;5074045;28;20048;-61
2023/07/12 07:05:59;;;;;;;2.78;2.28;;;;;;;22.65;100.00;99869.16;5073787;28;20086;-61
2023/07/12 07:08:25;;;;;;;5.32;2.83;;;;;;;22.73;100.00;99868.66;5073565;28;20123;-61
2023/07/12 07:10:52;;;;;;;4.40;2.47;;;;;;;22.86;100.00;99880.97;5073729;28;20111;-61
2023/07/12 07:13:19;;;;;;;4.93;2.88;;;;;;;22.98;100.00;99879.72;5073853;28;20452;-61
2023/07/12 07:15:46;;;;;;;5.07;3.00;;;;;;;23.07;100.00;99880.00;5073546;28;20044;-60
2023/07/12 07:18:12;;;;;;;5.30;3.10;;;;;;;23.08;100.00;99878.13;5073783;28;20490;-61
2023/07/12 07:20:39;;;;;;;6.47;3.30;;;;;;;23.12;100.00;99887.38;5073277;28;20040;-61
2023/07/12 07:23:04;;;;;;;;;;;;;;;23.23;100.00;99886.34;5074024;28;20037;-61
2023/07/12 07:25:30;;;;;;;3.60;2.65;;;;;;;23.36;99.27;99894.00;5073421;28;19962;-61
2023/07/12 07:27:55;;;;;;;2.83;2.25;;;;;;;23.44;95.16;99898.13;5073500;28;20452;-61
2023/07/12 07:30:21;;;;;;;3.08;2.47;;;;;;;23.52;95.04;99895.69;5071346;28;20694;-60
2023/07/12 07:32:46;;;;;;;4.10;2.60;;;;;;;23.52;95.80;99892.16;5073092;28;20039;-62
2023/07/12 07:35:12;;;;;;;3.20;2.08;;;;;;;23.60;94.75;99898.97;5073191;28;20481;-60
2023/07/12 07:37:39;;;;;;;3.53;2.57;;;;;;;23.70;94.53;99901.75;5073245;28;20044;-62
2023/07/12 07:40:05;;;;;;;3.33;2.63;;;;;;;23.75;93.91;99891.72;5072895;28;20282;-62
2023/07/12 07:42:32;;;;;;;5.00;2.70;;;;;;;23.85;93.07;99899.06;5073174;28;20400;-62
2023/07/12 07:44:58;;;;;;;3.80;2.63;;;;;;;23.91;93.95;99903.44;5073034;28;20036;-63
2023/07/12 07:47:23;;;;;;;3.83;2.75;;;;;;;23.99;92.29;99899.34;5072950;28;20036;-62
2023/07/12 07:49:48;;;;;;;3.65;2.65;;;;;;;24.03;94.06;99895.84;5072703;28;20029;-63
2023/07/12 07:52:14;;;;;;;4.28;2.80;;;;;;;24.05;93.24;99893.66;5073030;28;20406;-61
2023/07/12 07:54:39;;;;;;;5.50;2.92;;;;;;;24.18;93.67;99900.47;5072831;28;20041;-63
2023/07/12 07:57:07;;;;;;;3.67;2.78;;;;;;;24.14;93.54;99904.03;5072771;28;20111;-62
2023/07/12 07:59:33;;;;;;;3.95;2.70;;;;;;;24.25;94.02;99895.56;5072570;28;20033;-62
2023/07/12 08:01:58;;;;;;;3.35;2.50;;;;;;;24.35;92.32;99900.25;5072829;28;20127;-61
2023/07/12 08:04:24;;;;;;;5.10;2.58;;;;;;;24.42;92.71;99903.50;5072768;28;20374;-61
2023/07/12 08:06:50;;;;;;;3.08;2.50;;;;;;;24.51;90.66;99899.13;5072545;28;20448;-62
2023/07/12 08:09:15;;;;;;;3.25;2.05;;;;;;;24.66;88.99;99911.13;5072454;28;20071;-62
2023/07/12 08:11:42;;;;;;;5.28;2.75;;;;;;;24.74;90.52;99916.81;5072538;28;20070;-61
2023/07/12 08:14:08;;;;;;;7.38;2.80;;;;;;;24.75;89.13;99914.91;5072609;28;20051;-63
2023/07/12 08:16:35;;;;;;;4.72;2.45;;;;;;;24.80;88.35;99923.09;5072452;28;20040;-61
2023/07/12 08:19:02;;;;;;;4.80;2.60;;;;;;;24.89;88.29;99915.97;5072116;28;20059;-61
2023/07/12 08:21:28;;;;;;;3.30;2.55;;;;;;;25.08;87.82;99913.50;5072386;28;20036;-62
2023/07/12 08:23:54;;;;;;;4.20;2.80;;;;;;;25.29;84.99;99925.97;5072439;28;20042;-61
2023/07/12 08:26:19;;;;;;;4.88;2.72;;;;;;;25.18;82.16;99908.03;5072386;28;20040;-61
2023/07/12 08:28:45;;;;;;;3.25;2.50;;;;;;;25.14;87.91;99917.84;5072117;28;20036;-61
2023/07/12 08:31:11;;;;;;;4.45;2.90;;;;;;;25.19;86.92;99926.03;5072269;28;20413;-61
2023/07/12 08:33:36;;;;;;;4.28;2.50;;;;;;;25.33;88.17;99920.78;5072245;28;20040;-62
2023/07/12 08:36:02;;;;;;;4.97;2.83;;;;;;;25.48;86.65;99923.44;5072166;28;20037;-62
2023/07/12 08:38:31;;;;;;;3.97;2.55;;;;;;;25.50;81.10;99926.72;5071943;28;20409;-61
2023/07/12 08:40:57;;;;;;;5.85;2.58;;;;;;;25.56;83.13;99930.22;5072198;28;20036;-61
2023/07/12 08:43:31;;;;;;;5.53;2.85;;;;;;;25.74;84.53;99932.34;5071951;28;20085;-62
2023/07/12 08:46:05;;;;;;;3.70;2.58;;;;;;;25.85;84.42;99935.84;5072190;28;20074;-62
2023/07/12 08:48:31;;;;;;;3.90;2.22;;;;;;;25.86;76.38;99935.56;5071758;28;20094;-62
2023/07/12 08:50:56;;;;;;;3.70;2.08;;;;;;;25.94;71.99;99925.97;5072100;28;20482;-63
2023/07/12 08:53:29;;;;;;;2.45;1.60;;;;;;;26.17;73.18;99935.38;5072019;28;20040;-61
2023/07/12 08:55:59;;;;;;;2.22;1.40;;;;;;;26.16;68.63;99939.19;5071946;28;20037;-62
2023/07/12 08:58:33;;;;;;;4.45;1.55;;;;;;;26.32;66.39;99937.16;5071638;28;20032;-62
2023/07/12 09:01:03;;;;;;;2.55;1.50;;;;;;;26.40;67.76;99937.38;5072005;28;20040;-62
2023/07/12 09:03:28;;;;;;;1.95;1.50;;;;;;;26.47;69.08;99942.53;5071919;28;20119;-61
2023/07/12 09:05:54;;;;;;;2.95;1.92;;;;;;;26.47;69.39;99942.53;5071845;28;20162;-61
2023/07/12 09:08:27;;;;;;;2.35;1.67;;;;;;;26.61;67.09;99948.97;5071540;28;20186;-62
2023/07/12 09:10:56;;;;;;;1.98;1.50;;;;;;;26.74;66.32;99933.84;5071886;28;20028;-61
2023/07/12 09:13:30;;;;;;;2.33;1.55;;;;;;;26.71;65.28;99953.53;5071844;28;20102;-59
2023/07/12 09:15:56;;;;;;;3.63;1.85;;;;;;;26.84;59.72;99932.91;5071754;28;20036;-61
2023/07/12 09:18:41;;;;;;;1.63;1.33;;;;;;;27.01;60.60;99938.75;5071643;28;20551;-61
2023/07/12 09:21:15;;;;;;;2.65;1.27;;;;;;;27.20;60.99;99942.41;5071421;28;20079;-61
2023/07/12 09:23:44;;;;;;;3.63;1.30;;;;;;;27.36;57.97;99945.78;5077677;28;20048;-61
2023/07/12 09:26:20;;;;;;;0.95;0.85;;;;;;;27.42;56.20;99949.25;5079434;28;20221;-62
2023/07/12 09:28:46;;;;;;;2.38;1.50;;;;;;;27.21;55.38;99959.63;5080632;28;20550;-62
2023/07/12 09:31:14;;;;;;;2.65;1.35;;;;;;;27.46;56.58;99955.78;5079260;28;20040;-62
2023/07/12 09:33:40;;;;;;;3.90;1.60;;;;;;;27.39;58.15;99961.63;5080734;28;20063;-62
2023/07/12 09:36:05;;;;;;;1.80;1.50;;;;;;;27.19;55.48;99957.19;5080693;28;20068;-60
2023/07/12 09:38:36;;;;;;;2.00;1.20;;;;;;;27.15;56.80;99958.88;5078860;28;20040;-61
2023/07/12 09:41:09;;;;;;;2.28;1.50;;;;;;;27.40;57.52;99967.91;5080527;28;20062;-60
2023/07/12 09:43:38;;;;;;;4.30;1.60;;;;;;;27.50;58.21;99962.28;5081676;28;20040;-60
2023/07/12 09:46:18;;;;;;;2.20;1.38;;;;;;;27.62;57.69;99965.41;5080394;28;20482;-59
2023/07/12 09:48:53;;;;;;;2.30;1.58;;;;;;;27.73;55.71;99966.97;5080086;28;20025;-61
2023/07/12 09:51:28;;;;;;;2.47;1.40;;;;;;;27.92;57.29;99952.50;5079796;28;20121;-62
2023/07/12 09:54:02;;;;;;;2.10;1.25;;;;;;;28.11;53.49;99956.84;5079634;28;20115;-61
2023/07/12 09:56:51;;;;;;;2.70;1.38;;;;;;;28.18;52.68;99944.72;5089215;28;20040;-64
2023/07/12 09:59:25;;;;;;;3.42;1.42;;;;;;;28.36;53.28;99955.69;5093924;28;20051;-65
2023/07/12 10:01:59;;;;;;;2.65;1.48;;;;;;;28.55;51.76;99952.06;5095459;28;20481;-65
2023/07/12 10:04:41;;;;;;;1.63;1.25;;;;;;;28.69;53.31;99947.47;5095471;28;20032;-65
2023/07/12 10:07:42;;;;;;;1.50;1.25;;;;;;;29.03;51.09;99946.34;5095179;28;20064;-65
2023/07/12 10:10:28;;;;;;;2.80;1.15;;;;;;;29.19;50.06;99950.41;5078685;28;20052;-65
2023/07/12 10:13:13;;;;;;;4.40;1.50;;;;;;;29.51;50.46;99946.78;5095299;28;20043;-66
2023/07/12 10:15:40;;;;;;;2.47;1.52;;;;;;;29.40;50.83;99940.63;5095048;28;20089;-64
2023/07/12 10:18:15;;;;;;;1.70;1.45;;;;;;;29.61;48.72;99943.81;5095089;28;20089;-64
2023/07/12 10:20:41;;;;;;;1.63;1.08;;;;;;;29.92;51.24;99943.94;5094882;28;20450;-64
2023/07/12 10:23:10;;;;;;;1.63;1.30;;;;;;;30.13;49.57;99949.03;5095018;28;20115;-62
2023/07/12 10:25:37;;;;;;;3.30;1.50;;;;;;;30.32;47.17;99949.66;5095024;28;20040;-64
2023/07/12 10:28:13;;;;;;;2.00;1.38;;;;;;;30.31;47.93;99948.00;5094974;28;20044;-63
2023/07/12 10:30:41;;;;;;;2.58;1.23;;;;;;;30.07;46.89;99947.50;5094772;28;20393;-64
2023/07/12 10:33:24;;;;;;;1.60;1.30;;;;;;;30.13;46.70;99949.03;5094756;28;20097;-63
2023/07/12 10:36:01;;;;;;;2.85;1.40;;;;;;;30.50;46.29;99948.63;5094797;28;20536;-62
2023/07/12 10:38:26;;;;;;;;;;;;;;;30.75;44.74;99946.41;5094851;28;20040;-64
2023/07/12 10:40:59;;;;;;;1.47;1.20;;;;;;;30.91;46.52;99944.06;5094637;28;19916;-64
2023/07/12 10:43:37;;;;;;;2.08;1.10;;;;;;;30.39;46.57;99938.25;5094792;28;20062;-64
2023/07/12 10:46:10;;;;;;;1.65;1.35;;;;;;;30.41;44.37;99939.53;5094566;28;20042;-63
2023/07/12 10:48:39;;;;;;;2.13;1.30;;;;;;;30.28;46.29;99934.91;5094422;28;20024;-64
2023/07/12 10:51:23;;;;;;;2.97;1.70;;;;;;;30.15;44.48;99933.84;5094386;28;20032;-64
2023/07/12 10:53:52;;;;;;;2.28;1.40;;;;;;;30.66;45.45;99923.53;5094461;28;20063;-63
2023/07/12 10:56:35;;;;;;;1.90;1.30;;;;;;;30.98;45.33;99925.19;5094362;28;20027;-64
2023/07/12 10:59:03;;;;;;;2.83;1.63;;;;;;;31.19;43.34;99915.22;5093982;28;20541;-64
2023/07/12 11:01:49;;;;;;;4.72;1.90;;;;;;;31.19;43.86;99919.94;5094328;28;20412;-63
2023/07/12 11:04:28;;;;;;;3.27;1.47;;;;;;;30.82;45.01;99921.22;5094380;28;20040;-65
2023/07/12 11:06:58;;;;;;;3.13;1.52;;;;;;;31.07;44.96;99926.03;5093836;28;20115;-64
2023/07/12 11:09:25;;;;;;;3.33;1.70;;;;;;;31.16;44.76;99926.03;5093777;28;20040;-65
2023/07/12 11:11:58;;;;;;;3.08;1.73;;;;;;;31.42;47.47;99921.47;5092721;28;20121;-65
2023/07/12 11:14:26;;;;;;;4.50;1.45;;;;;;;31.19;45.85;99908.91;5094132;28;20421;-64
2023/07/12 11:17:11;;;;;;;2.13;1.40;;;;;;;31.07;45.04;99917.78;5093894;28;20028;-64
2023/07/12 11:19:39;;;;;;;2.30;1.25;;;;;;;30.90;45.24;99921.25;5093589;28;20398;-65
2023/07/12 11:22:11;;;;;;;2.60;1.48;;;;;;;30.55;46.37;99922.97;5093912;28;20034;-65
2023/07/12 11:24:38;;;;;;;2.33;1.50;;;;;;;30.47;45.82;99924.56;5093923;28;20465;-64
2023/07/12 11:27:07;;;;;;;;;;;;;;;30.39;47.65;99919.81;5094166;28;20032;-65
2023/07/12 11:29:45;;;;;;;2.05;1.65;;;;;;;30.33;49.93;99926.56;5093451;28;20006;-64
2023/07/12 11:32:32;;;;;;;1.92;1.58;;;;;;;30.67;47.59;99914.16;5093755;28;20477;-64
2023/07/12 11:35:18;;;;;;;2.92;1.75;;;;;;;31.14;46.60;99912.63;5084015;28;20400;-64
2023/07/12 11:37:47;;;;;;;1.90;1.70;;;;;;;31.36;46.44;99906.22;5082682;28;20025;-65
2023/07/12 11:40:24;;;;;;;2.63;1.52;;;;;;;31.45;48.46;99909.84;5081895;28;20070;-64
2023/07/12 11:42:50;;;;;;;3.10;1.52;;;;;;;31.43;44.71;99912.09;5083547;28;20115;-64
2023/07/12 11:45:19;;;;;;;2.35;1.88;;;;;;;30.60;46.97;99911.06;5081856;28;20133;-64
2023/07/12 11:47:51;;;;;;;2.53;1.60;;;;;;;30.52;46.10;99920.88;5082883;28;20473;-64
2023/07/12 11:50:23;;;;;;;3.15;1.58;;;;;;;29.93;47.84;99929.13;5071649;28;20439;-65
2023/07/12 11:52:50;;;;;;;3.08;1.67;;;;;;;29.53;47.68;99924.50;5073036;28;20054;-64
2023/07/12 11:55:19;;;;;;;2.85;2.13;;;;;;;29.20;48.88;99938.31;5073015;28;20059;-64
2023/07/12 11:57:46;;;;;;;2.33;1.60;;;;;;;29.36;49.28;99930.59;5072788;28;20047;-64
2023/07/12 12:00:24;;;;;;;3.65;1.65;;;;;;;29.61;49.08;99927.38;5072612;28;20043;-64
2023/07/12 12:02:55;;;;;;;3.97;1.60;;;;;;;29.91;46.81;99925.84;5072989;28;20128;-63
2023/07/12 12:05:27;;;;;;;2.50;1.77;;;;;;;30.50;45.67;99932.16;5072720;28;20045;-64
2023/07/12 12:07:55;;;;;;;3.75;1.75;;;;;;;31.06;44.18;99925.22;5076927;28;20055;-65
2023/07/12 12:10:26;;;;;;;4.45;1.48;;;;;;;31.28;43.73;99918.03;5092771;28;20633;-63
2023/07/12 12:12:52;;;;;;;2.60;1.60;;;;;;;31.77;42.99;99914.09;5092941;28;20040;-64
2023/07/12 12:15:32;;;;;;;2.28;1.75;;;;;;;32.25;41.20;99913.16;5092845;28;20063;-65
2023/07/12 12:18:05;;;;;;;3.08;1.63;;;;;;;32.41;42.71;99921.75;5092262;28;20397;-64
2023/07/12 12:20:31;;;;;;;4.38;1.73;;;;;;;32.74;39.55;99919.25;5092522;28;20557;-64
2023/07/12 12:23:11;;;;;;;3.63;1.77;;;;;;;32.40;39.21;99920.94;5089406;28;20068;-64
2023/07/12 12:25:46;;;;;;;2.42;1.40;;;;;;;32.60;39.35;99905.66;5084038;28;20034;-64
2023/07/12 12:28:26;;;;;;;2.35;1.77;;;;;;;32.54;40.54;99909.75;5092701;28;20116;-65
2023/07/12 12:31:00;;;;;;;4.18;1.80;;;;;;;32.96;39.50;99914.66;5077109;28;20039;-64
2023/07/12 12:33:28;;;;;;;2.47;1.35;;;;;;;32.60;40.35;99913.94;5072224;28;20048;-63
2023/07/12 12:36:00;;;;;;;2.50;1.77;;;;;;;32.47;39.80;99914.09;5072309;28;20497;-65
2023/07/12 12:38:29;;;;;;;2.85;1.65;;;;;;;32.71;39.05;99908.06;5071888;28;20044;-65
2023/07/12 12:41:03;;;;;;;3.13;1.65;;;;;;;32.78;40.19;99905.59;5072144;28;20382;-65
2023/07/12 12:43:28;;;;;;;3.05;1.45;;;;;;;32.55;37.08;99894.81;5072272;28;20036;-65
2023/07/12 12:45:54;;;;;;;2.47;1.40;;;;;;;33.42;38.57;99895.28;5072127;28;20374;-65
2023/07/12 12:48:20;;;;;;;3.83;1.80;;;;;;;33.56;39.38;99894.22;5071907;28;20048;-64
2023/07/12 12:50:45;;;;;;;2.37;1.47;;;;;;;34.10;35.84;99903.41;5072094;28;20036;-64
2023/07/12 12:53:14;;;;;;;2.30;1.40;;;;;;;34.07;35.52;99901.34;5070954;28;20040;-64
2023/07/12 12:55:39;;;;;;;2.30;1.45;;;;;;;34.02;35.45;99890.47;5072043;28;20043;-65
2023/07/12 12:58:10;;;;;;;1.93;1.47;;;;;;;34.00;35.01;99904.63;5071981;28;20033;-64
2023/07/12 13:00:35;;;;;;;2.88;1.60;;;;;;;33.86;35.66;99895.00;5071787;28;20086;-64
2023/07/12 13:03:01;;;;;;;2.30;1.40;;;;;;;33.92;36.32;99901.97;5071968;28;20033;-63
2023/07/12 13:05:27;;;;;;;2.67;1.40;;;;;;;34.31;34.89;99903.38;5072069;28;20558;-64
2023/07/12 13:08:01;;;;;;;3.90;1.70;;;;;;;34.21;35.74;99892.75;5071879;28;20123;-65
2023/07/12 13:10:27;;;;;;;3.00;1.73;;;;;;;33.96;36.09;99891.84;5071711;28;20033;-65
2023/07/12 13:12:52;;;;;;;1.80;1.30;;;;;;;33.88;37.22;99889.94;5071874;28;20382;-66
2023/07/12 13:15:22;;;;;;;3.43;1.57;;;;;;;33.76;36.39;99885.13;5071829;28;20037;-65
2023/07/12 13:17:49;;;;;;;4.25;1.38;;;;;;;33.48;35.35;99876.59;5071799;28;20067;-65
2023/07/12 13:20:19;;;;;;;2.28;1.58;;;;;;;32.99;36.07;99878.94;5071583;28;20128;-65
2023/07/12 13:22:45;;;;;;;3.20;1.60;;;;;;;32.43;37.96;99880.09;5071796;28;20067;-65
2023/07/12 13:25:12;;;;;;;3.05;1.73;;;;;;;32.02;39.17;99873.16;5071736;28;20497;-64
2023/07/12 13:27:39;;;;;;;;;;;;;;;31.92;38.38;99879.78;5072228;28;20119;-64
2023/07/12 13:30:16;;;;;;;;;;;;;;;31.54;37.81;99880.38;5074344;28;20527;-65
2023/07/12 13:32:42;;;;;;;2.90;1.50;;;;;;;31.14;39.03;99870.56;5075794;28;20412;-64
2023/07/12 13:35:14;;;;;;;2.40;1.70;;;;;;;31.02;39.56;99871.97;5075647;28;20562;-65
2023/07/12 13:37:39;;;;;;;2.83;1.50;;;;;;;31.10;39.45;99872.31;5075564;28;20477;-65
2023/07/12 13:40:06;;;;;;;2.25;1.40;;;;;;;30.83;40.51;99865.09;5075333;28;20040;-65
2023/07/12 13:42:32;;;;;;;4.07;1.83;;;;;;;30.35;40.20;99874.84;5075605;28;20071;-64
2023/07/12 13:44:59;;;;;;;2.60;1.40;;;;;;;30.34;41.69;99866.94;5075433;28;20086;-64
2023/07/12 13:47:26;;;;;;;2.67;1.65;;;;;;;30.21;41.75;99880.41;5075379;28;20033;-64
2023/07/12 13:49:54;;;;;;;3.35;1.90;;;;;;;29.89;41.37;99883.38;5075172;28;20111;-65
2023/07/12 13:52:26;;;;;;;2.78;2.00;;;;;;;29.75;41.89;99893.59;5074078;28;20032;-64
2023/07/12 13:54:52;;;;;;;3.33;1.98;;;;;;;29.52;42.76;99881.75;5075285;28;20049;-64
2023/07/12 13:57:21;;;;;;;4.07;2.13;;;;;;;29.46;42.23;99883.75;5075103;28;20024;-64
2023/07/12 13:59:48;;;;;;;2.58;1.58;;;;;;;29.40;42.88;99885.78;5074886;28;20063;-64
2023/07/12 14:02:33;;;;;;;3.42;1.80;;;;;;;29.36;42.45;99898.50;5075095;28;20573;-63
2023/07/12 14:05:01;;;;;;;2.55;1.65;;;;;;;29.41;42.10;99890.16;5075002;28;20040;-64
2023/07/12 14:07:30;;;;;;;2.75;1.77;;;;;;;29.25;41.18;99886.09;5074813;28;20029;-63
2023/07/12 14:09:56;;;;;;;2.95;1.83;;;;;;;29.31;43.05;99878.59;5074648;28;20032;-64
2023/07/12 14:12:23;;;;;;;4.32;2.10;;;;;;;29.47;42.42;99877.13;5074868;28;20044;-63
2023/07/12 14:14:50;;;;;;;3.38;1.67;;;;;;;29.50;41.32;99881.22;5074897;28;20062;-63
2023/07/12 14:17:21;;;;;;;3.70;1.60;;;;;;;29.36;40.80;99875.75;5074630;28;20050;-63
2023/07/12 14:19:50;;;;;;;2.83;1.45;;;;;;;29.33;40.53;99876.34;5074588;28;20024;-63
2023/07/12 14:22:19;;;;;;;3.17;1.50;;;;;;;29.26;40.79;99878.69;5074859;28;20040;-64
2023/07/12 14:24:45;;;;;;;2.72;1.75;;;;;;;29.35;41.31;99865.91;5074740;28;20039;-65
2023/07/12 14:27:23;;;;;;;3.70;1.48;;;;;;;29.26;41.07;99870.47;5074831;28;20040;-62
2023/07/12 14:29:50;;;;;;;3.00;1.83;;;;;;;29.18;41.51;99867.31;5074306;28;20094;-61
2023/07/12 14:32:17;;;;;;;2.03;1.23;;;;;;;29.21;40.37;99863.16;5074509;28;20037;-63
2023/07/12 14:34:42;;;;;;;5.72;2.20;;;;;;;29.04;39.69;99868.47;5074358;28;20516;-64
2023/07/12 14:37:12;;;;;;;3.35;1.77;;;;;;;28.80;39.12;99866.69;5074195;28;20068;-63
2023/07/12 14:39:37;;;;;;;4.22;2.25;;;;;;;28.72;40.82;99861.09;5073707;28;20036;-63
2023/07/12 14:42:03;;;;;;;3.38;1.55;;;;;;;28.68;40.03;99866.34;5074428;28;20078;-63
2023/07/12 14:44:28;;;;;;;3.22;1.52;;;;;;;28.69;40.86;99872.66;5074338;28;20044;-64
2023/07/12 14:46:54;;;;;;;4.25;1.55;;;;;;;28.74;41.35;99878.84;5074196;28;20044;-63
2023/07/12 14:49:19;;;;;;;3.80;1.50;;;;;;;28.85;41.65;99874.81;5074045;28;20044;-62
2023/07/12 14:51:45;;;;;;;5.25;2.30;;;;;;;28.70;42.94;99875.09;5074237;28;20393;-63
2023/07/12 14:54:12;;;;;;;4.53;1.45;;;;;;;28.73;41.73;99862.72;5074249;28;20063;-64
2023/07/12 14:56:37;;;;;;;3.13;1.38;;;;;;;28.75;42.03;99877.72;5074185;28;20501;-64
2023/07/12 14:59:03;;;;;;;2.50;1.50;;;;;;;28.73;42.80;99873.69;5073735;28;20036;-64
2023/07/12 15:01:29;;;;;;;3.63;1.70;;;;;;;28.66;40.84;99868.59;5074046;28;20475;-62
2023/07/12 15:03:57;;;;;;;4.68;1.83;;;;;;;28.70;42.13;99872.38;5074163;28;20041;-62
2023/07/12 15:06:25;;;;;;;3.03;1.67;;;;;;;28.69;42.07;99869.91;5073920;28;20040;-63
2023/07/12 15:08:50;;;;;;;5.13;1.60;;;;;;;28.62;42.00;99873.03;5073496;28;20549;-64
2023/07/12 15:11:22;;;;;;;2.75;1.48;;;;;;;28.53;42.25;99880.34;5073899;28;20131;-63
2023/07/12 15:13:49;;;;;;;2.15;1.38;;;;;;;28.53;41.85;99881.16;5073825;28;20036;-64
2023/07/12 15:16:18;;;;;;;2.58;1.40;;;;;;;28.56;42.31;99879.72;5073596;28;20040;-63
2023/07/12 15:18:44;;;;;;;4.32;1.70;;;;;;;28.43;41.86;99886.00;5073405;28;20045;-63
2023/07/12 15:21:21;;;;;;;4.05;1.85;;;;;;;28.32;41.51;99879.88;5073642;28;20041;-63
2023/07/12 15:23:47;;;;;;;5.47;1.95;;;;;;;28.30;41.93;99891.13;5073573;28;20037;-63
2023/07/12 15:26:13;;;;;;;2.58;1.40;;;;;;;28.18;42.99;99889.97;5073314;28;20448;-63
2023/07/12 15:28:40;;;;;;;3.25;1.83;;;;;;;28.13;43.29;99885.38;5073341;28;20033;-63
2023/07/12 15:31:16;;;;;;;2.47;1.40;;;;;;;28.16;43.40;99884.75;5073598;28;20310;-63
2023/07/12 15:33:41;;;;;;;7.20;1.50;;;;;;;28.24;44.37;99889.56;5073446;28;20267;-63
2023/07/12 15:36:10;;;;;;;4.75;1.60;;;;;;;28.27;45.03;99888.97;5073345;28;20508;-63
2023/07/12 15:38:35;;;;;;;3.25;1.42;;;;;;;28.29;44.25;99889.47;5073026;28;20040;-63
2023/07/12 15:41:11;;;;;;;3.05;1.70;;;;;;;28.15;44.11;99888.63;5073319;28;20489;-62
2023/07/12 15:43:43;;;;;;;4.45;1.83;;;;;;;28.07;43.59;99889.28;5073245;28;20068;-64
2023/07/12 15:46:15;;;;;;;5.55;1.75;;;;;;;27.96;43.65;99885.06;5073309;28;20123;-63
2023/07/12 15:48:41;;;;;;;3.15;1.83;;;;;;;27.84;44.84;99889.09;5073010;28;20119;-63
2023/07/12 15:51:19;;;;;;;3.22;1.60;;;;;;;27.82;44.37;99895.97;5072892;28;20043;-61
2023/07/12 15:53:49;;;;;;;1.25;0.90;;;;;;;27.84;44.48;99891.84;5072708;28;20043;-64
2023/07/12 15:56:21;;;;;;;3.60;1.75;;;;;;;27.57;45.07;99897.09;5073072;28;20043;-64
2023/07/12 15:58:48;;;;;;;2.72;1.65;;;;;;;27.54;44.87;99895.78;5073088;28;20394;-60
2023/07/12 16:01:23;;;;;;;5.70;2.22;;;;;;;27.59;44.65;99894.91;5072879;28;20048;-63
2023/07/12 16:03:49;;;;;;;2.53;1.40;;;;;;;27.50;45.90;99893.91;5072830;28;20501;-63
2023/07/12 16:06:15;;;;;;;3.42;1.50;;;;;;;27.48;46.42;99887.94;5072798;28;20121;-63
2023/07/12 16:08:41;;;;;;;2.05;1.10;;;;;;;27.44;46.63;99895.09;5072424;28;20056;-62
2023/07/12 16:11:32;;;;;;;4.13;1.80;;;;;;;27.39;46.76;99903.38;5072721;28;20025;-63
2023/07/12 16:13:59;;;;;;;4.20;1.20;;;;;;;27.38;47.89;99904.47;5072592;28;20032;-60
2023/07/12 16:16:26;;;;;;;2.58;1.50;;;;;;;27.41;47.35;99906.63;5072542;28;20493;-62
2023/07/12 16:18:52;;;;;;;2.00;1.33;;;;;;;27.28;48.09;99905.41;5072110;28;20059;-62
2023/07/12 16:21:26;;;;;;;2.17;1.30;;;;;;;27.21;48.03;99913.16;5072523;28;20047;-61
2023/07/12 16:23:53;;;;;;;2.03;1.27;;;;;;;27.13;47.83;99914.63;5072567;28;20044;-61
2023/07/12 16:26:26;;;;;;;2.45;1.40;;;;;;;27.03;48.28;99915.50;5072454;28;20036;-61
2023/07/12 16:28:51;;;;;;;1.33;0.98;;;;;;;27.00;47.85;99923.47;5072138;28;20396;-52
2023/07/12 16:31:22;;;;;;;2.47;1.35;;;;;;;26.90;47.74;99918.09;5072334;28;20025;-59
2023/07/12 16:33:49;;;;;;;5.43;2.03;;;;;;;26.79;48.78;99910.00;5072184;28;20419;-54
2023/07/12 16:36:14;;;;;;;3.42;1.75;;;;;;;26.93;48.17;99921.09;5072342;28;20385;-60
2023/07/12 16:38:40;;;;;;;1.98;1.42;;;;;;;26.85;48.38;99915.41;5071983;28;20047;-56
2023/07/12 16:41:14;;;;;;;2.45;1.30;;;;;;;26.72;48.51;99920.44;5072269;28;20040;-54
2023/07/12 16:43:39;;;;;;;3.03;1.33;;;;;;;26.71;50.32;99916.09;5072200;28;20122;-58
2023/07/12 16:46:06;;;;;;;2.60;1.42;;;;;;;26.63;49.48;99924.91;5072149;28;20501;-61
2023/07/12 16:48:32;;;;;;;3.38;1.48;;;;;;;26.59;49.74;99921.13;5071874;28;20036;-61
2023/07/12 16:50:58;;;;;;;2.50;1.30;;;;;;;26.58;48.54;99924.97;5072119;28;20055;-60